Time;durP1;ratioP1;P1;durP2;ratioP2;P2;SDS_P1;SDS_P2;PMS_P1;PMS_P2;Temp;Humidity;BMP_temperature;BMP_pressure;BME280_temperature;BME280_humidity;BME280_pressure;Samples;Min_cycle;Max_cycle;Signal;HPM_P1;HPM_P2
2023/04/23 00:01:05;;;;;;;25.98;20.77;;;17.60;1.00;;;;;;5035043;28;20025;-59
2023/04/23 00:03:34;;;;;;;23.13;20.55;;;17.60;1.00;;;;;;5034078;28;20376;-59
2023/04/23 00:06:04;;;;;;;23.60;21.13;;;17.60;1.00;;;;;;5033808;28;20026;-59
2023/04/23 00:08:31;;;;;;;24.77;20.30;;;17.50;1.00;;;;;;5035004;28;20037;-59
2023/04/23 00:10:57;;;;;;;22.90;19.83;;;17.40;1.00;;;;;;5034594;28;20063;-59
2023/04/23 00:13:23;;;;;;;25.58;20.27;;;17.40;1.00;;;;;;5033576;28;20422;-59
2023/04/23 00:15:52;;;;;;;22.38;19.35;;;17.40;1.00;;;;;;5034073;28;20070;-59
2023/04/23 00:18:18;;;;;;;22.77;20.15;;;17.30;1.00;;;;;;5034726;28;20480;-59
2023/04/23 00:20:44;;;;;;;22.30;19.88;;;17.40;1.00;;;;;;5034088;28;20103;-59
2023/04/23 00:23:10;;;;;;;24.20;20.73;;;17.30;1.00;;;;;;5034941;28;20475;-59
2023/04/23 00:25:36;;;;;;;20.55;18.45;;;17.40;1.00;;;;;;5034626;28;20033;-59
2023/04/23 00:28:02;;;;;;;19.83;17.73;;;17.30;1.00;;;;;;5033198;28;20052;-59
2023/04/23 00:30:27;;;;;;;23.55;19.73;;;17.30;1.00;;;;;;5034375;28;20033;-59
2023/04/23 00:32:53;;;;;;;21.20;18.85;;;17.30;1.00;;;;;;5034262;28;20083;-59
2023/04/23 00:35:19;;;;;;;21.50;19.17;;;17.30;1.00;;;;;;5034435;28;20076;-59
2023/04/23 00:37:45;;;;;;;22.10;19.65;;;17.30;1.00;;;;;;5034670;28;20025;-60
2023/04/23 00:40:11;;;;;;;21.17;18.38;;;17.30;1.00;;;;;;5033539;28;20356;-59
2023/04/23 00:42:38;;;;;;;22.40;19.42;;;17.30;1.00;;;;;;5034588;28;20033;-59
2023/04/23 00:45:13;;;;;;;19.23;15.95;;;17.30;1.00;;;;;;5034150;28;20029;-59
2023/04/23 00:47:39;;;;;;;17.33;15.57;;;17.30;1.00;;;;;;5034529;28;20044;-59
2023/04/23 00:50:06;;;;;;;16.50;14.27;;;17.30;1.00;;;;;;5032445;28;20021;-59
2023/04/23 00:52:33;;;;;;;15.70;13.23;;;17.30;1.00;;;;;;5033270;28;20033;-60
2023/04/23 00:54:59;;;;;;;14.30;12.80;;;17.30;1.00;;;;;;5034132;28;20037;-60
2023/04/23 00:57:25;;;;;;;13.25;11.85;;;17.30;1.00;;;;;;5034280;28;20489;-59
2023/04/23 00:59:53;;;;;;;12.85;11.43;;;17.30;1.00;;;;;;5033593;28;20128;-59
2023/04/23 01:02:20;;;;;;;11.65;10.20;;;17.40;1.00;;;;;;5033718;28;20025;-59
2023/04/23 01:04:50;;;;;;;12.40;10.40;;;17.40;1.00;;;;;;5034057;28;20025;-60
2023/04/23 01:07:15;;;;;;;9.13;8.20;;;17.40;1.00;;;;;;5032481;28;20032;-60
2023/04/23 01:09:42;;;;;;;9.65;8.55;;;17.40;1.00;;;;;;5031715;28;20037;-59
2023/04/23 01:12:09;;;;;;;8.15;7.38;;;17.40;1.00;;;;;;5033607;28;20479;-60
2023/04/23 01:14:36;;;;;;;8.73;7.28;;;17.40;1.00;;;;;;5033940;28;20470;-60
2023/04/23 01:17:03;;;;;;;10.60;7.25;;;17.40;1.00;;;;;;5036061;28;20309;-59
2023/04/23 01:19:28;;;;;;;8.68;7.78;;;17.40;1.00;;;;;;5033762;28;20431;-59
2023/04/23 01:21:58;;;;;;;9.63;7.80;;;17.40;1.00;;;;;;5031594;28;20034;-59
2023/04/23 01:24:24;;;;;;;7.85;7.05;;;17.40;1.00;;;;;;5033805;28;20026;-59
2023/04/23 01:26:50;;;;;;;7.78;6.70;;;17.30;1.00;;;;;;5034456;28;20529;-59
2023/04/23 01:29:16;;;;;;;8.85;7.35;;;17.30;1.00;;;;;;5046154;28;20029;-59
2023/04/23 01:31:43;;;;;;;8.20;7.35;;;17.30;1.00;;;;;;5031785;28;20479;-59
2023/04/23 01:34:09;;;;;;;8.05;6.47;;;17.30;1.00;;;;;;5033003;28;20033;-59
2023/04/23 01:36:36;;;;;;;7.00;6.30;;;17.30;1.00;;;;;;5040498;28;20103;-59
2023/04/23 01:39:01;;;;;;;8.35;6.63;;;17.40;1.00;;;;;;5034688;28;20562;-59
2023/04/23 01:41:27;;;;;;;7.30;6.60;;;17.40;1.00;;;;;;5024832;28;20052;-60
2023/04/23 01:43:54;;;;;;;7.85;6.25;;;17.40;1.00;;;;;;5033235;28;20067;-59
2023/04/23 01:46:20;;;;;;;8.20;6.57;;;17.40;1.00;;;;;;5030031;28;20033;-60
2023/04/23 01:48:49;;;;;;;6.97;5.90;;;17.40;1.00;;;;;;5033125;28;20045;-59
2023/04/23 01:51:15;;;;;;;5.60;4.95;;;17.40;1.00;;;;;;5031201;28;20033;-59
2023/04/23 01:53:40;;;;;;;6.93;5.50;;;17.40;1.00;;;;;;5043960;28;20025;-59
2023/04/23 01:56:08;;;;;;;5.97;4.90;;;17.40;1.00;;;;;;5035416;28;20108;-60
2023/04/23 01:58:34;;;;;;;5.65;5.05;;;17.40;1.00;;;;;;5032997;28;20491;-59
2023/04/23 02:01:00;;;;;;;7.30;5.32;;;17.40;1.00;;;;;;5028520;28;20076;-60
2023/04/23 02:03:27;;;;;;;5.85;5.28;;;17.40;1.00;;;;;;5031542;28;20076;-60
2023/04/23 02:05:54;;;;;;;5.65;5.07;;;17.30;1.00;;;;;;5032979;28;20064;-59
2023/04/23 02:08:20;;;;;;;6.47;5.88;;;17.40;1.00;;;;;;5032800;28;20040;-60
2023/04/23 02:10:45;;;;;;;6.95;5.65;;;17.30;1.00;;;;;;5032371;28;20033;-59
2023/04/23 02:13:11;;;;;;;7.18;5.90;;;17.30;1.00;;;;;;5032915;28;20025;-60
2023/04/23 02:15:37;;;;;;;6.35;5.75;;;17.30;1.00;;;;;;5031823;28;20103;-59
2023/04/23 02:18:03;;;;;;;6.50;5.85;;;17.30;1.00;;;;;;5032648;28;20028;-59
2023/04/23 02:20:29;;;;;;;5.63;5.00;;;17.30;1.00;;;;;;5033150;28;20033;-59
2023/04/23 02:22:55;;;;;;;5.97;5.18;;;17.30;1.00;;;;;;5032546;28;20036;-59
2023/04/23 02:25:21;;;;;;;6.55;5.93;;;17.30;1.00;;;;;;5030311;28;20029;-59
2023/04/23 02:27:47;;;;;;;7.20;6.25;;;17.30;1.00;;;;;;5031351;28;20049;-59
2023/04/23 02:30:13;;;;;;;6.93;6.20;;;17.30;1.00;;;;;;5030745;28;20022;-60
2023/04/23 02:32:40;;;;;;;7.20;6.00;;;17.30;1.00;;;;;;5030214;28;20079;-60
2023/04/23 02:35:09;;;;;;;7.78;6.50;;;17.30;1.00;;;;;;5032025;28;20029;-60
2023/04/23 02:37:36;;;;;;;7.32;6.05;;;17.30;1.00;;;;;;5032653;28;20029;-60
2023/04/23 02:40:04;;;;;;;6.90;5.60;;;17.30;1.00;;;;;;5032470;28;20033;-59
2023/04/23 02:42:30;;;;;;;6.63;5.88;;;17.30;1.00;;;;;;5032584;28;20030;-59
2023/04/23 02:44:55;;;;;;;6.07;5.47;;;17.30;1.00;;;;;;5031293;28;20025;-59
2023/04/23 02:47:21;;;;;;;7.38;5.68;;;17.30;1.00;;;;;;5032316;28;20044;-60
2023/04/23 02:49:50;;;;;;;6.05;5.40;;;17.30;1.00;;;;;;5032752;28;20544;-59
2023/04/23 02:52:15;;;;;;;5.72;4.78;;;17.30;1.00;;;;;;5030708;28;20021;-59
2023/04/23 02:54:41;;;;;;;6.97;5.03;;;17.30;1.00;;;;;;5032808;28;20033;-59
2023/04/23 02:57:07;;;;;;;6.15;5.28;;;17.30;1.00;;;;;;5032347;28;20029;-59
2023/04/23 02:59:33;;;;;;;7.30;5.20;;;17.20;1.00;;;;;;5032498;28;20026;-59
2023/04/23 03:01:58;;;;;;;4.80;4.35;;;17.20;1.00;;;;;;5031933;28;20026;-59
2023/04/23 03:04:24;;;;;;;5.25;4.75;;;17.20;1.00;;;;;;5034675;28;20030;-59
2023/04/23 03:06:50;;;;;;;5.40;4.32;;;17.20;1.00;;;;;;5036113;28;20514;-59
2023/04/23 03:09:15;;;;;;;5.65;4.88;;;17.10;1.00;;;;;;5036091;28;20041;-59
2023/04/23 03:11:41;;;;;;;6.30;4.72;;;17.10;1.00;;;;;;5027481;28;20026;-59
2023/04/23 03:14:07;;;;;;;6.90;5.45;;;17.10;1.00;;;;;;5031819;28;20045;-59
2023/04/23 03:16:32;;;;;;;6.95;5.28;;;17.10;1.00;;;;;;5034769;28;20491;-59
2023/04/23 03:18:58;;;;;;;5.60;4.65;;;17.00;1.00;;;;;;5034565;28;20485;-60
2023/04/23 03:21:24;;;;;;;7.80;5.22;;;17.10;1.00;;;;;;5035811;28;20048;-59
2023/04/23 03:23:50;;;;;;;6.30;5.70;;;17.10;1.00;;;;;;5035789;28;20034;-59
2023/04/23 03:26:16;;;;;;;6.20;5.20;;;17.10;1.00;;;;;;5035476;28;20032;-59
2023/04/23 03:28:41;;;;;;;6.28;5.55;;;17.10;1.00;;;;;;5035622;28;20045;-59
2023/04/23 03:31:07;;;;;;;6.35;5.72;;;17.00;1.00;;;;;;5034029;28;20025;-59
2023/04/23 03:33:33;;;;;;;10.13;5.90;;;17.10;1.00;;;;;;5035446;28;20033;-59
2023/04/23 03:35:58;;;;;;;5.75;5.13;;;17.10;1.00;;;;;;5035335;28;20041;-59
2023/04/23 03:38:24;;;;;;;9.35;5.95;;;17.00;1.00;;;;;;5035293;28;20167;-59
2023/04/23 03:40:50;;;;;;;6.30;5.07;;;17.00;1.00;;;;;;5035476;28;20091;-59
2023/04/23 03:43:16;;;;;;;6.50;5.53;;;17.00;1.00;;;;;;5035630;28;20052;-59
2023/04/23 03:45:41;;;;;;;8.13;5.90;;;17.00;1.00;;;;;;5035403;28;20498;-59
2023/04/23 03:48:07;;;;;;;6.30;5.03;;;16.90;1.00;;;;;;5034030;28;20029;-59
2023/04/23 03:50:37;;;;;;;5.97;5.45;;;16.80;1.00;;;;;;5034034;28;20569;-59
2023/04/23 03:53:03;;;;;;;7.75;5.78;;;16.90;1.00;;;;;;5035467;28;20025;-59
2023/04/23 03:55:29;;;;;;;6.82;6.05;;;17.00;1.00;;;;;;5034940;28;20109;-60
2023/04/23 03:57:54;;;;;;;6.22;5.63;;;16.90;1.00;;;;;;5035120;28;20091;-60
2023/04/23 04:00:20;;;;;;;6.70;6.00;;;17.00;1.00;;;;;;5049256;28;20021;-59
2023/04/23 04:02:46;;;;;;;7.18;5.95;;;17.00;1.00;;;;;;5035144;28;20025;-59
2023/04/23 04:05:12;;;;;;;8.85;6.55;;;17.00;1.00;;;;;;5033345;28;20372;-59
2023/04/23 04:07:38;;;;;;;6.20;5.47;;;16.90;1.00;;;;;;5035150;28;20404;-59
2023/04/23 04:10:05;;;;;;;6.07;5.57;;;17.00;1.00;;;;;;5034957;28;20048;-59
2023/04/23 04:12:31;;;;;;;6.18;5.57;;;17.00;1.00;;;;;;5034575;28;20045;-59
2023/04/23 04:14:56;;;;;;;6.53;5.82;;;16.90;1.00;;;;;;5034231;28;20060;-59
2023/04/23 04:17:22;;;;;;;7.47;5.93;;;17.00;1.00;;;;;;5034509;28;20497;-59
2023/04/23 04:19:48;;;;;;;9.48;5.72;;;17.00;1.00;;;;;;5033523;28;20133;-59
2023/04/23 04:22:14;;;;;;;6.78;5.28;;;17.00;1.00;;;;;;5043431;28;20032;-59
2023/04/23 04:24:40;;;;;;;8.30;6.22;;;16.90;1.00;;;;;;5034596;28;20037;-59
2023/04/23 04:27:07;;;;;;;7.75;5.97;;;17.00;1.00;;;;;;5034633;28;20592;-59
2023/04/23 04:29:33;;;;;;;6.85;5.05;;;17.00;1.00;;;;;;5034276;28;20029;-59
2023/04/23 04:32:01;;;;;;;7.68;5.80;;;16.90;1.00;;;;;;5034053;28;20037;-60
2023/04/23 04:34:27;;;;;;;7.82;5.88;;;16.90;1.00;;;;;;5029602;28;20034;-59
2023/04/23 04:36:53;;;;;;;6.07;5.22;;;17.00;1.00;;;;;;5020313;28;20041;-60
2023/04/23 04:39:19;;;;;;;6.88;5.93;;;17.00;1.00;;;;;;5034620;28;20029;-59
2023/04/23 04:41:47;;;;;;;11.35;6.05;;;17.00;1.00;;;;;;5032544;28;20071;-59
2023/04/23 04:44:13;;;;;;;6.80;6.20;;;17.00;1.00;;;;;;5034556;28;20037;-59
2023/04/23 04:46:39;;;;;;;7.40;5.75;;;17.10;1.00;;;;;;5034221;28;20491;-60
2023/04/23 04:49:09;;;;;;;7.20;5.57;;;17.10;1.00;;;;;;5033588;28;20036;-59
2023/04/23 04:52:28;;;;;;;6.40;5.57;;;17.00;1.00;;;;;;5034070;28;20033;-59
2023/04/23 04:54:54;;;;;;;8.05;5.00;;;17.00;1.00;;;;;;5031356;28;20430;-59
2023/04/23 04:57:23;;;;;;;6.50;5.28;;;17.00;1.00;;;;;;5034036;28;20033;-60
2023/04/23 04:59:49;;;;;;;6.43;4.65;;;17.10;1.00;;;;;;5032088;28;20025;-59
2023/04/23 05:02:15;;;;;;;4.72;4.28;;;17.10;1.00;;;;;;5033423;28;20060;-60
2023/04/23 05:04:41;;;;;;;5.65;4.95;;;17.10;1.00;;;;;;5034196;28;20033;-59
2023/04/23 05:07:06;;;;;;;6.68;5.65;;;17.10;1.00;;;;;;5026419;28;20545;-59
2023/04/23 05:09:32;;;;;;;6.07;5.40;;;17.10;1.00;;;;;;5033894;28;20037;-59
2023/04/23 05:11:58;;;;;;;6.25;5.38;;;17.10;1.00;;;;;;5028500;28;20553;-60
2023/04/23 05:14:25;;;;;;;5.93;5.35;;;17.10;1.00;;;;;;5032391;28;20033;-59
2023/04/23 05:17:16;;;;;;;5.95;5.43;;;17.10;1.00;;;;;;5033479;28;20025;-59
2023/04/23 05:19:41;;;;;;;6.20;5.60;;;17.10;1.00;;;;;;5025785;28;20075;-60
2023/04/23 05:22:07;;;;;;;6.18;5.00;;;17.10;1.00;;;;;;5033771;28;20430;-60
2023/04/23 05:24:32;;;;;;;6.28;5.38;;;17.10;1.00;;;;;;5033514;28;20029;-59
2023/04/23 05:26:58;;;;;;;9.40;5.90;;;17.10;1.00;;;;;;5032893;28;20090;-59
2023/04/23 05:29:24;;;;;;;5.18;4.68;;;17.10;1.00;;;;;;5033237;28;20087;-59
2023/04/23 05:31:49;;;;;;;6.40;4.97;;;17.10;1.00;;;;;;5031784;28;20107;-60
2023/04/23 05:34:15;;;;;;;5.72;5.00;;;17.10;1.00;;;;;;5028004;28;20069;-60
2023/04/23 05:36:41;;;;;;;6.88;5.18;;;17.10;1.00;;;;;;5031226;28;20042;-60
2023/04/23 05:39:07;;;;;;;6.10;4.88;;;17.20;1.00;;;;;;5033319;28;20026;-59
2023/04/23 05:41:33;;;;;;;7.97;5.22;;;17.20;1.00;;;;;;5033068;28;20033;-59
2023/04/23 05:43:58;;;;;;;5.50;5.00;;;17.30;1.00;;;;;;5033010;28;20029;-60
2023/04/23 05:46:24;;;;;;;5.65;5.07;;;17.40;1.00;;;;;;5033099;28;20037;-59
2023/04/23 05:48:50;;;;;;;5.32;4.82;;;17.50;1.00;;;;;;5033054;28;20475;-59
2023/04/23 05:51:16;;;;;;;5.05;4.55;;;17.50;1.00;;;;;;5033096;28;20048;-59
2023/04/23 05:53:42;;;;;;;4.32;3.92;;;17.60;1.00;;;;;;5028504;28;20025;-60
2023/04/23 05:56:08;;;;;;;6.70;4.28;;;17.50;1.00;;;;;;5031491;28;20025;-59
2023/04/23 05:58:34;;;;;;;7.32;4.28;;;17.60;1.00;;;;;;5039041;28;20021;-59
2023/04/23 06:00:59;;;;;;;4.10;3.75;;;17.60;1.00;;;;;;5032374;28;20032;-59
2023/04/23 06:03:25;;;;;;;5.07;4.63;;;17.60;1.00;;;;;;5024703;28;20034;-60
2023/04/23 06:05:51;;;;;;;5.43;4.60;;;17.60;1.00;;;;;;5031765;28;20047;-60
2023/04/23 06:08:17;;;;;;;4.90;4.03;;;17.70;1.00;;;;;;5032704;28;20037;-60
2023/04/23 06:10:42;;;;;;;5.68;4.00;;;17.60;1.00;;;;;;5032812;28;20107;-60
2023/04/23 06:13:09;;;;;;;4.20;3.80;;;17.70;1.00;;;;;;5032798;28;20064;-60
2023/04/23 06:15:35;;;;;;;4.70;4.30;;;17.70;1.00;;;;;;5031506;28;20025;-60
2023/04/23 06:18:01;;;;;;;4.32;3.92;;;17.70;1.00;;;;;;5031673;28;20105;-59
2023/04/23 06:20:26;;;;;;;3.75;3.45;;;17.70;1.00;;;;;;5031592;28;20029;-60
2023/04/23 06:22:52;;;;;;;5.20;3.95;;;17.70;1.00;;;;;;5032806;28;20114;-59
2023/04/23 06:25:17;;;;;;;3.80;3.50;;;17.60;1.00;;;;;;5032677;28;20026;-59
2023/04/23 06:27:43;;;;;;;5.32;4.32;;;17.60;1.00;;;;;;5032937;28;20032;-60
2023/04/23 06:30:09;;;;;;;3.80;3.50;;;17.60;1.00;;;;;;5031325;28;20083;-60
2023/04/23 06:32:38;;;;;;;3.05;2.85;;;17.70;1.00;;;;;;5032888;28;20041;-60
2023/04/23 06:35:03;;;;;;;5.97;3.92;;;17.50;1.00;;;;;;5016656;28;20049;-60
2023/04/23 06:37:30;;;;;;;5.70;3.53;;;17.50;1.00;;;;;;5032704;28;20022;-60
2023/04/23 06:39:57;;;;;;;3.88;3.50;;;17.50;1.00;;;;;;5036084;28;20037;-60
2023/04/23 06:42:23;;;;;;;4.93;3.45;;;17.70;1.00;;;;;;5036475;28;20060;-59
2023/04/23 06:44:50;;;;;;;4.20;3.85;;;17.70;1.00;;;;;;5036544;28;20049;-60
2023/04/23 06:47:16;;;;;;;4.70;4.10;;;17.60;1.00;;;;;;5036370;28;20017;-60
2023/04/23 06:49:41;;;;;;;5.63;3.90;;;17.50;1.00;;;;;;5036346;28;20183;-60
2023/04/23 06:52:07;;;;;;;3.92;3.63;;;17.50;1.00;;;;;;5036290;28;20037;-60
2023/04/23 06:54:33;;;;;;;4.82;4.43;;;17.50;1.00;;;;;;5029208;28;20026;-60
2023/04/23 06:57:18;;;;;;;4.20;3.80;;;17.50;1.00;;;;;;5030012;28;20029;-60
2023/04/23 06:59:44;;;;;;;4.30;3.90;;;17.50;1.00;;;;;;5024434;28;20029;-60
2023/04/23 07:02:09;;;;;;;5.38;3.85;;;17.50;1.00;;;;;;5036156;28;20025;-60
2023/04/23 07:04:35;;;;;;;4.68;4.13;;;17.50;1.00;;;;;;5022633;28;20064;-60
2023/04/23 07:07:01;;;;;;;5.13;4.25;;;17.50;1.00;;;;;;5035019;28;20364;-60
2023/04/23 07:09:27;;;;;;;4.72;4.32;;;17.50;1.00;;;;;;5049902;28;20041;-60
2023/04/23 07:11:53;;;;;;;4.30;3.85;;;17.50;1.00;;;;;;5035030;28;20096;-60
2023/04/23 07:14:19;;;;;;;4.88;3.78;;;17.70;1.00;;;;;;5036184;28;20129;-60
2023/04/23 07:16:45;;;;;;;4.57;3.70;;;17.70;1.00;;;;;;5035993;28;20018;-60
2023/04/23 07:19:10;;;;;;;4.38;3.35;;;17.70;1.00;;;;;;5035923;28;20034;-60
2023/04/23 07:21:36;;;;;;;6.05;3.65;;;17.80;1.00;;;;;;5036048;28;20014;-60
2023/04/23 07:24:08;;;;;;;5.90;4.07;;;17.70;1.00;;;;;;5036095;28;20033;-60
2023/04/23 07:26:34;;;;;;;5.18;3.85;;;17.70;1.00;;;;;;5035705;28;20490;-60
2023/04/23 07:29:01;;;;;;;4.90;3.85;;;17.80;1.00;;;;;;5034409;28;20422;-61
2023/04/23 07:31:27;;;;;;;4.65;3.50;;;17.70;1.00;;;;;;5035930;28;20029;-60
2023/04/23 07:33:54;;;;;;;4.50;4.10;;;17.70;1.00;;;;;;5035801;28;20043;-60
2023/04/23 07:36:21;;;;;;;4.32;3.92;;;17.70;1.00;;;;;;5035280;28;20403;-60
2023/04/23 07:38:49;;;;;;;3.90;3.17;;;17.70;1.00;;;;;;5035484;28;20549;-60
2023/04/23 07:41:16;;;;;;;3.17;2.88;;;17.70;1.00;;;;;;5035449;28;20100;-60
2023/04/23 07:43:50;;;;;;;4.30;3.40;;;17.70;1.00;;;;;;5035300;28;20412;-60
2023/04/23 07:46:16;;;;;;;3.78;3.05;;;17.70;1.00;;;;;;5035704;28;20079;-60
2023/04/23 07:48:41;;;;;;;4.85;2.50;;;17.70;1.00;;;;;;5035087;28;20033;-60
2023/04/23 07:51:08;;;;;;;3.75;2.25;;;17.70;1.00;;;;;;5033990;28;20388;-60
2023/04/23 07:53:34;;;;;;;3.80;2.47;;;17.80;1.00;;;;;;5033869;28;20072;-60
2023/04/23 07:56:00;;;;;;;3.65;2.70;;;17.80;1.00;;;;;;5033860;28;20497;-60
2023/04/23 07:58:25;;;;;;;3.65;2.13;;;17.80;1.00;;;;;;5035209;28;20022;-60
2023/04/23 08:00:51;;;;;;;4.45;2.70;;;17.80;1.00;;;;;;5035334;28;20089;-60
2023/04/23 08:03:17;;;;;;;4.25;2.50;;;17.80;1.00;;;;;;5035101;28;20021;-60
2023/04/23 08:05:43;;;;;;;2.95;2.65;;;17.90;1.00;;;;;;5035317;28;20406;-60
2023/04/23 08:08:10;;;;;;;4.18;2.67;;;17.90;1.00;;;;;;5041329;28;20477;-60
2023/04/23 08:10:36;;;;;;;4.18;2.70;;;17.90;1.00;;;;;;5042437;28;20035;-60
2023/04/23 08:13:02;;;;;;;3.85;2.13;;;18.00;1.00;;;;;;5035060;28;20025;-60
2023/04/23 08:15:28;;;;;;;5.38;3.00;;;18.00;1.00;;;;;;5035150;28;20087;-60
2023/04/23 08:17:53;;;;;;;3.53;2.55;;;18.00;1.00;;;;;;5034992;28;20485;-60
2023/04/23 08:20:19;;;;;;;2.63;2.00;;;18.10;1.00;;;;;;5035107;28;20112;-60
2023/04/23 08:22:45;;;;;;;2.95;1.80;;;18.20;1.00;;;;;;5030231;28;20025;-60
2023/04/23 08:25:13;;;;;;;2.83;2.50;;;18.30;1.00;;;;;;5033381;28;20044;-60
2023/04/23 08:27:39;;;;;;;5.65;3.35;;;18.30;1.00;;;;;;5033687;28;20033;-60
2023/04/23 08:30:07;;;;;;;4.47;3.20;;;18.40;1.00;;;;;;5034579;28;20095;-60
2023/04/23 08:32:32;;;;;;;2.78;2.55;;;18.60;1.00;;;;;;5033284;28;20032;-60
2023/04/23 08:34:58;;;;;;;2.60;2.33;;;18.60;1.00;;;;;;5032973;28;20037;-60
2023/04/23 08:37:24;;;;;;;3.72;1.85;;;18.60;1.00;;;;;;5034695;28;20152;-60
2023/04/23 08:39:50;;;;;;;2.50;2.03;;;18.70;1.00;;;;;;5034364;28;20076;-60
2023/04/23 08:42:30;;;;;;;3.67;1.80;;;18.70;1.00;;;;;;5034409;28;20018;-60
2023/04/23 08:44:56;;;;;;;6.97;1.88;;;18.70;1.00;;;;;;5034189;28;20048;-60
2023/04/23 08:47:39;;;;;;;2.42;1.80;;;18.80;1.00;;;;;;5034357;28;20026;-60
2023/04/23 08:50:06;;;;;;;2.83;2.13;;;18.80;1.00;;;;;;5031187;28;20044;-60
2023/04/23 08:52:34;;;;;;;3.72;2.67;;;18.80;1.00;;;;;;5034049;28;20498;-60
2023/04/23 08:55:03;;;;;;;4.32;2.70;;;18.90;1.00;;;;;;5033182;28;20021;-60
2023/04/23 08:57:29;;;;;;;4.45;2.38;;;18.90;1.00;;;;;;5034119;28;20025;-60
2023/04/23 08:59:56;;;;;;;2.80;2.20;;;19.00;1.00;;;;;;5034158;28;20037;-60
2023/04/23 09:02:40;;;;;;;3.22;2.65;;;19.10;1.00;;;;;;5033378;28;20037;-60
2023/04/23 09:05:06;;;;;;;3.95;2.75;;;19.30;1.00;;;;;;5034388;28;20025;-60
2023/04/23 09:07:36;;;;;;;5.32;2.63;;;19.40;1.00;;;;;;5034822;28;20022;-60
2023/04/23 09:10:03;;;;;;;4.40;2.65;;;19.40;1.00;;;;;;5029608;28;20411;-60
2023/04/23 09:12:29;;;;;;;4.05;2.70;;;19.60;1.00;;;;;;5033766;28;20380;-60
2023/04/23 09:14:55;;;;;;;2.28;2.08;;;19.60;1.00;;;;;;5033762;28;20029;-60
2023/04/23 09:17:22;;;;;;;3.17;2.40;;;19.70;1.00;;;;;;5032553;28;20029;-60
2023/04/23 09:19:50;;;;;;;3.83;2.13;;;19.70;1.00;;;;;;5033559;28;20025;-60
2023/04/23 09:22:39;;;;;;;4.97;2.63;;;19.80;1.00;;;;;;5033558;28;20013;-60
2023/04/23 09:25:07;;;;;;;3.13;2.78;;;19.70;1.00;;;;;;5033700;28;20013;-60
2023/04/23 09:27:33;;;;;;;3.05;2.40;;;19.70;1.00;;;;;;5032238;28;20029;-60
2023/04/23 09:30:06;;;;;;;4.18;2.20;;;19.70;1.00;;;;;;5033367;28;20502;-60
2023/04/23 09:32:33;;;;;;;3.40;3.10;;;19.70;1.00;;;;;;5033690;28;20052;-60
2023/04/23 09:35:00;;;;;;;4.28;2.30;;;19.70;1.00;;;;;;5033271;28;20036;-60
2023/04/23 09:37:26;;;;;;;2.63;1.95;;;19.90;1.00;;;;;;5033335;28;20045;-60
2023/04/23 09:39:55;;;;;;;4.55;2.55;;;20.20;1.00;;;;;;5033264;28;20033;-60
2023/04/23 09:42:23;;;;;;;1.98;1.77;;;20.40;1.00;;;;;;5033422;28;20054;-60
2023/04/23 09:45:01;;;;;;;3.03;2.28;;;20.40;1.00;;;;;;5027061;28;20392;-60
2023/04/23 09:47:34;;;;;;;2.38;1.88;;;20.50;1.00;;;;;;5033502;28;20116;-60
2023/04/23 09:50:00;;;;;;;4.25;1.85;;;20.50;1.00;;;;;;5032044;28;20041;-60
2023/04/23 09:52:27;;;;;;;4.38;2.00;;;20.60;1.00;;;;;;5032354;28;20383;-60
2023/04/23 09:54:56;;;;;;;5.28;2.47;;;20.60;1.00;;;;;;5033324;28;20038;-60
2023/04/23 09:57:25;;;;;;;4.18;2.67;;;20.60;1.00;;;;;;5032897;28;20053;-60
2023/04/23 09:59:50;;;;;;;6.25;2.20;;;20.60;1.00;;;;;;5031846;28;20032;-60
2023/04/23 10:02:17;;;;;;;2.63;1.77;;;20.60;1.00;;;;;;5033194;28;20022;-60
2023/04/23 10:04:43;;;;;;;3.47;1.80;;;20.60;1.00;;;;;;5033110;28;20037;-60
2023/04/23 10:07:12;;;;;;;2.85;1.90;;;20.50;1.00;;;;;;5033143;28;20090;-60
2023/04/23 10:09:40;;;;;;;2.58;1.90;;;20.60;1.00;;;;;;5046761;28;20029;-60
2023/04/23 10:12:07;;;;;;;2.63;1.95;;;20.70;1.00;;;;;;5032721;28;20467;-60
2023/04/23 10:14:33;;;;;;;2.55;1.65;;;20.60;1.00;;;;;;5031978;28;20041;-60
2023/04/23 10:17:01;;;;;;;2.60;1.73;;;20.60;1.00;;;;;;5032821;28;20030;-60
2023/04/23 10:19:28;;;;;;;5.88;1.92;;;20.60;1.00;;;;;;5032742;28;20030;-60
2023/04/23 10:21:56;;;;;;;3.53;1.80;;;20.60;1.00;;;;;;5033057;28;20026;-60
2023/04/23 10:24:27;;;;;;;2.92;2.13;;;20.60;1.00;;;;;;5032846;28;20487;-60
2023/04/23 10:26:56;;;;;;;3.38;2.45;;;20.50;1.00;;;;;;5019327;28;20059;-60
2023/04/23 10:29:35;;;;;;;5.90;2.70;;;20.50;1.00;;;;;;5032671;28;20034;-60
2023/04/23 10:32:05;;;;;;;3.03;2.53;;;20.50;1.00;;;;;;5019540;28;20026;-60
2023/04/23 10:34:32;;;;;;;3.00;2.70;;;20.50;1.00;;;;;;5032682;28;20038;-60
2023/04/23 10:36:59;;;;;;;5.13;2.60;;;20.60;1.00;;;;;;5032372;28;20440;-60
2023/04/23 10:39:36;;;;;;;6.43;3.38;;;20.60;1.00;;;;;;5032538;28;20386;-60
2023/04/23 10:42:03;;;;;;;5.80;2.60;;;20.60;1.00;;;;;;5032880;28;20038;-60
2023/04/23 10:44:46;;;;;;;4.63;2.70;;;20.60;1.00;;;;;;5032545;28;20051;-59
2023/04/23 10:47:14;;;;;;;4.05;2.38;;;20.70;1.00;;;;;;5032560;28;20407;-59
2023/04/23 10:49:41;;;;;;;4.28;3.30;;;20.80;1.00;;;;;;5032594;28;20049;-59
2023/04/23 10:52:13;;;;;;;3.58;3.10;;;20.80;1.00;;;;;;5032461;28;20092;-59
2023/04/23 10:54:40;;;;;;;3.08;2.35;;;20.80;1.00;;;;;;5019036;28;20063;-59
2023/04/23 10:57:07;;;;;;;4.18;2.85;;;20.90;1.00;;;;;;5032466;28;20025;-60
2023/04/23 10:59:37;;;;;;;3.35;2.55;;;20.80;1.00;;;;;;5032530;28;20036;-59
2023/04/23 11:02:08;;;;;;;3.75;2.38;;;20.80;1.00;;;;;;5032331;28;20029;-59
2023/04/23 11:04:35;;;;;;;3.67;2.40;;;20.90;1.00;;;;;;5032506;28;20025;-59
2023/04/23 11:07:06;;;;;;;4.20;3.55;;;21.10;1.00;;;;;;5027431;28;20391;-59
2023/04/23 11:09:43;;;;;;;3.00;2.80;;;21.10;1.00;;;;;;5038868;28;20099;-59
2023/04/23 11:12:29;;;;;;;3.38;2.13;;;21.20;1.00;;;;;;5023919;28;20044;-59
2023/04/23 11:14:58;;;;;;;5.60;4.13;;;21.30;1.00;;;;;;5018600;28;20026;-59
2023/04/23 11:17:30;;;;;;;5.45;3.60;;;21.40;1.00;;;;;;5032264;28;20030;-60
2023/04/23 11:20:12;;;;;;;5.55;3.38;;;21.50;1.00;;;;;;5032216;28;20022;-60
2023/04/23 11:22:39;;;;;;;3.80;3.30;;;21.70;1.00;;;;;;5032544;28;20022;-60
2023/04/23 11:25:10;;;;;;;3.95;3.33;;;21.90;1.00;;;;;;5033819;28;20387;-59
2023/04/23 11:27:43;;;;;;;6.80;3.80;;;22.00;1.00;;;;;;5034509;28;20078;-60
2023/04/23 11:30:17;;;;;;;4.80;3.60;;;22.10;1.00;;;;;;5035835;28;20033;-59
2023/04/23 11:32:46;;;;;;;5.57;4.05;;;22.20;1.00;;;;;;5035969;28;20040;-60
2023/04/23 11:35:20;;;;;;;3.83;3.25;;;22.30;1.00;;;;;;5034078;28;20033;-59
2023/04/23 11:37:47;;;;;;;3.72;3.13;;;22.60;1.00;;;;;;5034394;28;20127;-60
2023/04/23 11:40:18;;;;;;;4.38;3.17;;;22.90;1.00;;;;;;5035351;28;20091;-60
2023/04/23 11:42:53;;;;;;;4.55;3.30;;;23.10;1.00;;;;;;5034288;28;20033;-60
2023/04/23 11:45:24;;;;;;;5.55;3.25;;;23.30;1.00;;;;;;5021862;28;20025;-60
2023/04/23 11:47:55;;;;;;;3.60;2.80;;;23.30;1.00;;;;;;5035062;28;20409;-60
2023/04/23 11:50:26;;;;;;;5.60;3.30;;;23.30;1.00;;;;;;5035557;28;20021;-60
2023/04/23 11:52:52;;;;;;;4.53;3.05;;;23.50;1.00;;;;;;5027642;28;20033;-60
2023/04/23 11:55:18;;;;;;;3.85;3.05;;;23.80;1.00;;;;;;5020218;28;20040;-60
2023/04/23 11:57:49;;;;;;;4.85;3.40;;;24.40;1.00;;;;;;5035177;28;20483;-60
2023/04/23 12:00:22;;;;;;;5.50;3.13;;;27.80;1.00;;;;;;5035165;28;20467;-60
2023/04/23 12:02:53;;;;;;;2.88;2.55;;;31.30;1.00;;;;;;5035043;28;20025;-60
2023/04/23 12:05:34;;;;;;;4.65;3.83;;;33.90;99.90;;;;;;5034969;28;20021;-60
2023/04/23 12:08:10;;;;;;;3.88;3.30;;;36.60;99.90;;;;;;5039867;28;20470;-61
2023/04/23 12:10:48;;;;;;;3.95;3.67;;;38.50;99.90;;;;;;5042544;28;20029;-61
2023/04/23 12:13:21;;;;;;;4.55;4.20;;;39.10;99.90;;;;;;5035030;28;20025;-60
2023/04/23 12:15:55;;;;;;;3.50;3.25;;;37.30;99.90;;;;;;5029375;28;20702;-60
2023/04/23 12:18:30;;;;;;;6.80;3.50;;;38.70;99.90;;;;;;5021216;28;20029;-61
2023/04/23 12:21:04;;;;;;;6.90;4.63;;;39.70;99.90;;;;;;5033574;28;20471;-61
2023/04/23 12:23:32;;;;;;;4.97;4.47;;;41.10;99.90;;;;;;5033582;28;20071;-60
2023/04/23 12:25:57;;;;;;;4.20;3.85;;;40.80;99.90;;;;;;5034929;28;20038;-61
2023/04/23 12:28:23;;;;;;;4.90;4.55;;;41.40;99.90;;;;;;5034515;28;20176;-60
2023/04/23 12:30:49;;;;;;;3.97;3.55;;;40.60;99.90;;;;;;5034809;28;20056;-59
2023/04/23 12:33:15;;;;;;;6.63;4.30;;;39.50;99.90;;;;;;5034430;28;20072;-59
2023/04/23 12:35:48;;;;;;;5.07;4.50;;;38.40;99.90;;;;;;5033914;28;20100;-59
2023/04/23 12:38:28;;;;;;;5.57;5.07;;;38.80;99.90;;;;;;5034775;28;20081;-60
2023/04/23 12:40:55;;;;;;;4.40;4.10;;;38.90;99.90;;;;;;5023786;28;20038;-60
2023/04/23 12:43:22;;;;;;;4.63;3.97;;;39.30;99.90;;;;;;5034297;28;20033;-59
2023/04/23 12:45:48;;;;;;;7.03;6.38;;;41.30;99.90;;;;;;5034505;28;20033;-60
2023/04/23 12:48:14;;;;;;;4.75;4.45;;;42.30;99.90;;;;;;5034201;28;20104;-60
2023/04/23 12:50:40;;;;;;;4.47;4.15;;;41.90;99.90;;;;;;5034248;28;20033;-60
2023/04/23 12:53:06;;;;;;;4.50;4.18;;;41.10;99.90;;;;;;5034362;28;20048;-60
2023/04/23 12:55:33;;;;;;;5.70;4.95;;;40.30;99.90;;;;;;5042732;28;20120;-60
2023/04/23 12:57:59;;;;;;;4.97;4.50;;;40.70;99.90;;;;;;5039419;28;20064;-60